createdAt,value
2018-07-13T00:02:02.412Z,23.80
2018-07-13T00:04:30.998Z,23.70
2018-07-13T00:06:59.469Z,23.60
2018-07-13T00:09:27.658Z,23.60
2018-07-13T00:11:56.137Z,23.60
2018-07-13T00:14:25.470Z,23.40
2018-07-13T00:16:56.414Z,23.50
2018-07-13T00:19:25.205Z,23.50
2018-07-13T00:21:54.120Z,23.30
2018-07-13T00:24:22.458Z,23.20
2018-07-13T00:26:50.801Z,23.10
2018-07-13T00:29:19.112Z,22.90
2018-07-13T00:31:47.505Z,22.80
2018-07-13T00:34:15.874Z,22.80
2018-07-13T00:36:44.455Z,22.70
2018-07-13T00:39:13.818Z,22.70
2018-07-13T00:41:42.091Z,22.60
2018-07-13T00:44:10.318Z,22.40
2018-07-13T00:46:38.805Z,22.50
2018-07-13T00:49:07.401Z,22.10
2018-07-13T00:51:35.638Z,22.20
2018-07-13T00:56:32.265Z,21.90
2018-07-13T00:59:01.150Z,21.60
2018-07-13T01:01:29.610Z,21.50
2018-07-13T01:03:57.890Z,21.70
2018-07-13T01:06:26.153Z,21.70
2018-07-13T01:08:54.955Z,21.90
2018-07-13T01:11:23.414Z,21.90
2018-07-13T01:13:52.101Z,22.00
2018-07-13T01:16:20.406Z,21.90
2018-07-13T01:18:48.633Z,21.70
2018-07-13T01:21:17.209Z,21.30
2018-07-13T01:23:45.646Z,21.30
2018-07-13T01:26:14.006Z,21.20
2018-07-13T01:28:42.270Z,21.10
2018-07-13T01:31:10.509Z,21.30
2018-07-13T01:33:39.030Z,21.60
2018-07-13T01:36:07.416Z,21.70
2018-07-13T01:38:35.667Z,21.40
2018-07-13T01:41:03.957Z,21.30
2018-07-13T01:43:32.237Z,21.30
2018-07-13T01:46:00.590Z,21.20
2018-07-13T01:48:28.883Z,21.00
2018-07-13T01:50:57.544Z,20.80
2018-07-13T01:53:25.748Z,20.60
2018-07-13T01:55:54.061Z,20.80
2018-07-13T01:58:22.319Z,20.80
2018-07-13T02:00:50.572Z,20.70
2018-07-13T02:03:18.872Z,20.60
2018-07-13T02:05:47.117Z,20.50
2018-07-13T02:08:15.423Z,20.50
2018-07-13T02:10:43.704Z,20.60
2018-07-13T02:13:11.893Z,20.70
2018-07-13T02:15:40.106Z,20.80
2018-07-13T02:18:08.835Z,20.80
2018-07-13T02:20:37.629Z,20.90
2018-07-13T02:23:05.863Z,20.80
2018-07-13T02:25:34.046Z,20.70
2018-07-13T02:28:02.322Z,20.60
2018-07-13T02:30:30.706Z,20.70
2018-07-13T02:32:58.920Z,20.30
2018-07-13T02:35:27.154Z,20.50
2018-07-13T02:37:55.347Z,20.70
2018-07-13T02:40:24.482Z,20.80
2018-07-13T02:42:52.798Z,20.70
2018-07-13T02:45:21.010Z,20.90
2018-07-13T02:47:49.225Z,20.60
2018-07-13T02:50:17.465Z,20.50
2018-07-13T02:52:45.841Z,20.50
2018-07-13T02:55:14.153Z,20.50
2018-07-13T02:57:42.334Z,20.40
2018-07-13T03:00:10.562Z,20.10
2018-07-13T03:02:38.970Z,19.90
2018-07-13T03:05:07.634Z,20.00
2018-07-13T03:07:35.893Z,20.30
2018-07-13T03:10:04.333Z,20.50
2018-07-13T03:12:32.582Z,20.20
2018-07-13T03:15:01.808Z,19.80
2018-07-13T03:17:30.195Z,19.60
2018-07-13T03:19:58.464Z,19.60
2018-07-13T03:22:27.055Z,19.40
2018-07-13T03:24:55.266Z,19.50
2018-07-13T03:27:23.529Z,19.50
2018-07-13T03:29:52.225Z,19.60
2018-07-13T03:32:20.466Z,19.50
2018-07-13T03:34:48.788Z,19.50
2018-07-13T03:37:17.047Z,19.40
2018-07-13T03:39:45.394Z,19.50
2018-07-13T03:42:13.610Z,19.80
2018-07-13T03:44:41.810Z,19.70
2018-07-13T03:47:10.039Z,19.60
2018-07-13T03:49:38.722Z,19.70
2018-07-13T03:52:07.145Z,19.80
2018-07-13T03:54:35.537Z,19.80
2018-07-13T03:57:03.802Z,20.20
2018-07-13T03:59:31.996Z,20.00
2018-07-13T04:02:00.248Z,20.20
2018-07-13T04:04:28.481Z,20.20
2018-07-13T04:06:56.719Z,20.00
2018-07-13T04:09:24.889Z,19.90
2018-07-13T04:11:53.125Z,20.10
2018-07-13T04:14:21.382Z,20.50
2018-07-13T04:16:49.594Z,20.70
2018-07-13T04:19:17.831Z,20.20
2018-07-13T04:21:46.208Z,20.30
2018-07-13T04:24:14.605Z,20.50
2018-07-13T04:26:45.318Z,20.50
2018-07-13T04:29:13.590Z,20.50
2018-07-13T04:31:41.810Z,20.60
2018-07-13T04:34:10.069Z,20.90
2018-07-13T04:36:38.942Z,20.80
2018-07-13T04:39:09.036Z,20.70
2018-07-13T04:41:37.474Z,20.80
2018-07-13T04:44:05.845Z,21.00
2018-07-13T04:46:34.064Z,21.10
2018-07-13T04:49:02.583Z,21.30
2018-07-13T04:51:30.878Z,21.40
2018-07-13T04:53:59.073Z,21.40
2018-07-13T04:56:27.285Z,21.40
2018-07-13T04:58:55.500Z,21.20
2018-07-13T05:01:24.709Z,21.40
2018-07-13T05:03:53.097Z,21.50
2018-07-13T05:06:21.368Z,21.60
2018-07-13T05:08:49.525Z,21.70
2018-07-13T05:11:17.749Z,21.80
2018-07-13T05:13:47.065Z,21.80
2018-07-13T05:16:15.497Z,21.90
2018-07-13T05:18:43.673Z,21.90
2018-07-13T05:21:11.945Z,22.00
2018-07-13T05:23:40.085Z,22.00
2018-07-13T05:26:08.984Z,22.00
2018-07-13T05:28:39.449Z,22.20
2018-07-13T05:31:08.005Z,22.30
2018-07-13T05:33:36.241Z,22.30
2018-07-13T05:36:04.509Z,22.20
2018-07-13T05:38:32.769Z,22.40
2018-07-13T05:41:01.627Z,22.50
2018-07-13T05:43:29.877Z,22.70
2018-07-13T05:45:58.157Z,22.80
2018-07-13T05:48:26.361Z,22.70
2018-07-13T05:50:54.701Z,22.70
2018-07-13T05:53:23.154Z,22.80
2018-07-13T05:55:51.401Z,22.60
2018-07-13T05:58:19.637Z,22.70
2018-07-13T06:00:48.025Z,22.60
2018-07-13T06:03:16.332Z,22.60
2018-07-13T06:05:44.776Z,22.60
2018-07-13T06:08:12.993Z,22.80
2018-07-13T06:10:41.878Z,22.90
2018-07-13T06:13:10.090Z,23.00
2018-07-13T06:15:38.974Z,23.20
2018-07-13T06:18:07.465Z,23.20
2018-07-13T06:20:35.672Z,23.40
2018-07-13T06:23:03.868Z,23.60
2018-07-13T06:25:32.175Z,23.80
2018-07-13T06:28:00.373Z,23.90
2018-07-13T06:32:56.809Z,24.20
2018-07-13T06:35:26.185Z,24.30
2018-07-13T06:38:24.051Z,24.40
2018-07-13T06:40:52.289Z,24.40
2018-07-13T06:43:20.501Z,24.40
2018-07-13T06:45:48.718Z,24.50
2018-07-13T06:48:17.081Z,24.70
2018-07-13T06:50:45.348Z,24.80
2018-07-13T06:53:15.442Z,24.90
2018-07-13T06:55:43.753Z,25.20
2018-07-13T06:58:23.615Z,25.10
2018-07-13T07:01:08.297Z,25.20
2018-07-13T07:03:42.757Z,25.40
2018-07-13T07:06:15.350Z,25.60
2018-07-13T07:08:50.782Z,25.70
2018-07-13T07:11:19.096Z,25.90
2018-07-13T07:13:47.646Z,25.80
2018-07-13T07:16:16.689Z,26.00
2018-07-13T07:18:45.935Z,26.10
2018-07-13T07:21:14.477Z,26.40
2018-07-13T07:23:42.678Z,26.40
2018-07-13T07:26:10.954Z,26.50
2018-07-13T07:28:39.675Z,27.00
2018-07-13T07:31:08.078Z,27.40
2018-07-13T07:33:36.356Z,27.70
2018-07-13T07:36:04.574Z,27.80
2018-07-13T07:38:33.098Z,27.70
2018-07-13T07:41:01.277Z,27.80
2018-07-13T07:43:29.481Z,28.00
2018-07-13T07:45:57.778Z,28.20
2018-07-13T07:48:26.299Z,28.50
2018-07-13T07:50:54.747Z,28.80
2018-07-13T07:53:23.239Z,29.00
2018-07-13T07:55:51.528Z,29.60
2018-07-13T07:58:19.773Z,30.40
2018-07-13T08:00:48.174Z,31.60
2018-07-13T08:03:16.619Z,33.10
2018-07-13T08:05:45.664Z,34.20
2018-07-13T08:08:13.943Z,36.20
2018-07-13T08:10:42.138Z,37.60
2018-07-13T08:13:10.343Z,38.30
2018-07-13T08:15:38.679Z,38.40
2018-07-13T08:18:06.886Z,39.00
2018-07-13T08:20:36.691Z,39.30
2018-07-13T08:23:08.159Z,39.20
2018-07-13T08:25:37.598Z,39.30
2018-07-13T08:28:06.902Z,39.70
2018-07-13T08:30:39.524Z,40.90
2018-07-13T08:33:07.784Z,41.70
2018-07-13T08:35:36.029Z,42.70
2018-07-13T08:38:05.114Z,43.80
2018-07-13T08:40:33.465Z,44.90
2018-07-13T08:43:02.228Z,45.40
2018-07-13T08:45:30.738Z,45.30
2018-07-13T08:47:58.974Z,45.00
2018-07-13T08:50:27.544Z,45.00
2018-07-13T08:52:56.318Z,44.90
2018-07-13T08:55:24.794Z,45.00
2018-07-13T08:57:53.706Z,45.70
2018-07-13T09:00:21.934Z,46.70
2018-07-13T09:02:50.402Z,47.90
2018-07-13T09:05:18.605Z,49.10
2018-07-13T09:07:48.003Z,49.90
2018-07-13T09:10:17.219Z,50.50
2018-07-13T09:12:46.087Z,50.60
2018-07-13T09:15:15.350Z,50.20
2018-07-13T09:17:45.700Z,49.40
2018-07-13T09:20:14.095Z,47.60
2018-07-13T09:22:42.440Z,47.20
2018-07-13T09:25:11.982Z,46.60
2018-07-13T09:27:40.754Z,45.60
2018-07-13T09:30:10.266Z,44.70
2018-07-13T09:32:38.740Z,45.50
2018-07-13T09:35:06.957Z,47.40
2018-07-13T09:40:03.648Z,51.00
2018-07-13T09:42:31.917Z,51.90
2018-07-13T09:45:00.396Z,52.70
2018-07-13T09:47:29.074Z,53.40
2018-07-13T09:49:57.294Z,53.90
2018-07-13T09:52:25.514Z,54.60
2018-07-13T09:54:54.333Z,54.80
2018-07-13T09:57:22.747Z,54.70
2018-07-13T09:59:50.955Z,54.80
2018-07-13T10:02:19.201Z,55.10
2018-07-13T10:04:47.422Z,53.60
2018-07-13T10:07:17.111Z,50.90
2018-07-13T10:09:45.668Z,48.90
2018-07-13T10:12:14.121Z,47.60
2018-07-13T10:14:42.472Z,46.10
2018-07-13T10:17:11.915Z,44.80
2018-07-13T10:19:40.250Z,43.10
2018-07-13T10:22:11.302Z,41.60
2018-07-13T10:24:39.907Z,40.30
2018-07-13T10:27:08.703Z,40.40
2018-07-13T10:29:40.519Z,41.10
2018-07-13T10:32:09.293Z,41.40
2018-07-13T10:34:37.554Z,41.10
2018-07-13T10:37:05.898Z,41.60
2018-07-13T10:39:34.466Z,41.90
2018-07-13T10:42:02.680Z,41.10
2018-07-13T10:44:31.188Z,40.30
2018-07-13T10:46:59.635Z,39.80
2018-07-13T10:49:27.838Z,39.20
2018-07-13T10:51:56.320Z,38.50
2018-07-13T10:54:24.810Z,38.10
2018-07-13T10:59:21.205Z,38.40
2018-07-13T11:01:49.507Z,38.50
2018-07-13T11:04:17.711Z,38.30
2018-07-13T11:06:45.962Z,38.10
2018-07-13T11:09:14.191Z,38.30
2018-07-13T11:11:42.411Z,40.00
2018-07-13T11:14:11.552Z,43.30
2018-07-13T11:16:40.254Z,46.50
2018-07-13T11:19:09.339Z,49.00
2018-07-13T11:21:38.279Z,49.70
2018-07-13T11:24:06.642Z,50.80
2018-07-13T11:26:34.829Z,52.10
2018-07-13T11:29:03.036Z,52.40
2018-07-13T11:31:31.888Z,52.00
2018-07-13T11:34:00.183Z,50.80
2018-07-13T11:36:29.324Z,48.30
2018-07-13T11:38:58.141Z,46.50
2018-07-13T11:41:26.346Z,44.40
2018-07-13T11:43:55.138Z,42.70
2018-07-13T11:46:23.715Z,41.20
2018-07-13T11:48:51.908Z,39.70
2018-07-13T11:51:20.130Z,39.20
2018-07-13T11:53:48.392Z,38.60
2018-07-13T11:58:46.261Z,38.30
2018-07-13T12:01:15.731Z,38.40
2018-07-13T12:06:11.850Z,42.60
2018-07-13T12:08:40.044Z,46.00
2018-07-13T12:11:08.419Z,48.10
2018-07-13T12:13:36.702Z,47.50
2018-07-13T12:16:05.074Z,46.60
2018-07-13T12:18:33.288Z,45.30
2018-07-13T12:21:01.715Z,44.40
2018-07-13T12:23:30.100Z,43.90
2018-07-13T12:25:58.322Z,45.00
2018-07-13T12:28:26.957Z,47.90
2018-07-13T12:30:55.221Z,50.50
2018-07-13T12:33:23.515Z,51.20
2018-07-13T12:35:51.729Z,50.20
2018-07-13T12:38:19.957Z,49.40
2018-07-13T12:40:48.218Z,48.50
2018-07-13T12:43:17.479Z,46.90
2018-07-13T12:45:45.767Z,46.00
2018-07-13T12:48:14.091Z,45.60
2018-07-13T12:50:42.375Z,44.30
2018-07-13T12:53:11.246Z,43.70
2018-07-13T12:55:39.798Z,43.20
2018-07-13T12:58:08.157Z,42.80
2018-07-13T13:00:36.402Z,42.40
2018-07-13T13:03:04.639Z,41.80
2018-07-13T13:05:32.978Z,41.30
2018-07-13T13:08:01.815Z,40.90
2018-07-13T13:10:30.149Z,41.60
2018-07-13T13:12:58.503Z,43.00
2018-07-13T13:15:26.848Z,43.30
2018-07-13T13:17:55.030Z,43.50
2018-07-13T13:20:23.344Z,44.50
2018-07-13T13:22:51.649Z,44.50
2018-07-13T13:25:19.933Z,44.60
2018-07-13T13:27:48.247Z,43.90
2018-07-13T13:30:17.126Z,43.00
2018-07-13T13:32:45.707Z,41.90
2018-07-13T13:35:14.125Z,42.00
2018-07-13T13:37:42.451Z,41.80
2018-07-13T13:40:10.697Z,41.70
2018-07-13T13:42:39.062Z,41.40
2018-07-13T13:45:07.423Z,41.80
2018-07-13T13:47:35.635Z,43.10
2018-07-13T13:56:09.790Z,48.00
2018-07-13T13:58:38.454Z,48.40
2018-07-13T14:01:07.366Z,49.00
2018-07-13T14:03:35.655Z,48.50
2018-07-13T14:06:03.942Z,46.70
2018-07-13T14:08:32.624Z,44.70
2018-07-13T14:11:00.962Z,42.90
2018-07-13T14:13:29.540Z,41.20
2018-07-13T14:15:57.788Z,40.10
2018-07-13T14:18:25.999Z,39.20
2018-07-13T14:20:54.283Z,38.50
2018-07-13T14:23:23.542Z,37.90
2018-07-13T14:25:51.783Z,37.40
2018-07-13T14:28:20.358Z,37.00
2018-07-13T14:30:48.574Z,36.50
2018-07-13T14:33:18.643Z,36.40
2018-07-13T14:35:47.449Z,36.20
2018-07-13T14:38:15.704Z,36.30
2018-07-13T14:40:43.959Z,37.00
2018-07-13T14:43:12.206Z,38.20
2018-07-13T14:45:40.450Z,38.20
2018-07-13T14:48:08.799Z,38.10
2018-07-13T14:50:37.081Z,38.10
2018-07-13T14:53:05.449Z,37.60
2018-07-13T14:55:33.651Z,37.40
2018-07-13T14:58:02.854Z,37.30
2018-07-13T15:00:31.204Z,37.30
2018-07-13T15:02:59.479Z,37.70
2018-07-13T15:05:27.777Z,38.60
2018-07-13T15:07:56.001Z,38.50
2018-07-13T15:10:24.910Z,38.00
2018-07-13T15:12:53.235Z,37.20
2018-07-13T15:17:49.478Z,36.20
2018-07-13T15:20:17.682Z,35.80
2018-07-13T15:22:45.975Z,35.40
2018-07-13T15:25:14.214Z,35.00
2018-07-13T15:27:42.453Z,34.60
2018-07-13T15:30:10.711Z,34.30
2018-07-13T15:32:39.244Z,33.70
2018-07-13T15:35:07.500Z,33.00
2018-07-13T15:37:35.693Z,33.00
2018-07-13T15:40:03.924Z,32.90
2018-07-13T15:42:32.293Z,32.90
2018-07-13T15:45:01.143Z,32.50
2018-07-13T15:47:29.724Z,32.40
2018-07-13T15:49:58.031Z,32.40
2018-07-13T15:52:26.291Z,32.30
2018-07-13T15:54:54.598Z,32.10
2018-07-13T15:57:22.918Z,32.00
2018-07-13T15:59:51.104Z,31.80
2018-07-13T16:02:19.422Z,31.80
2018-07-13T16:04:47.693Z,31.50
2018-07-13T16:07:16.360Z,31.40
2018-07-13T16:09:44.630Z,31.10
2018-07-13T16:12:13.107Z,31.00
2018-07-13T16:14:41.407Z,31.00
2018-07-13T16:17:10.315Z,31.20
2018-07-13T16:19:38.573Z,31.40
2018-07-13T16:22:06.904Z,31.90
2018-07-13T16:24:35.231Z,32.30
2018-07-13T16:29:32.477Z,32.60
2018-07-13T16:32:00.796Z,32.80
2018-07-13T16:34:29.116Z,32.80
2018-07-13T16:36:57.431Z,32.70
2018-07-13T16:39:25.666Z,32.70
2018-07-13T16:41:54.078Z,32.70
2018-07-13T16:44:22.487Z,32.40
2018-07-13T16:46:51.022Z,32.50
2018-07-13T16:49:19.379Z,32.40
2018-07-13T16:51:47.774Z,32.40
2018-07-13T16:54:16.142Z,32.40
2018-07-13T16:56:45.208Z,32.50
2018-07-13T16:59:13.417Z,32.40
2018-07-13T17:01:41.868Z,32.20
2018-07-13T17:04:10.093Z,32.20
2018-07-13T17:06:39.534Z,32.30
2018-07-13T17:09:07.897Z,32.20
2018-07-13T17:14:04.971Z,32.10
2018-07-13T17:16:33.242Z,32.00
2018-07-13T17:19:01.491Z,31.90
2018-07-13T17:21:29.776Z,31.80
2018-07-13T17:23:58.112Z,31.60
2018-07-13T17:26:26.399Z,31.40
2018-07-13T17:28:54.743Z,31.20
2018-07-13T17:31:23.517Z,31.10
2018-07-13T17:33:52.025Z,30.90
2018-07-13T17:36:20.456Z,30.80
2018-07-13T17:38:48.688Z,30.90
2018-07-13T17:41:17.612Z,31.00
2018-07-13T17:43:46.512Z,31.00
2018-07-13T17:46:14.731Z,31.00
2018-07-13T17:48:43.005Z,31.30
2018-07-13T17:51:11.246Z,31.20
2018-07-13T17:53:39.617Z,31.20
2018-07-13T17:56:10.030Z,31.20
2018-07-13T17:58:38.590Z,31.00
2018-07-13T18:01:08.002Z,30.90
2018-07-13T18:03:36.261Z,30.80
2018-07-13T18:06:04.635Z,30.70
2018-07-13T18:11:00.933Z,30.40
2018-07-13T18:13:29.267Z,30.20
2018-07-13T18:15:57.593Z,30.10
2018-07-13T18:18:25.792Z,30.10
2018-07-13T18:20:54.803Z,30.10
2018-07-13T18:23:23.298Z,29.90
2018-07-13T18:25:51.515Z,29.70
2018-07-13T18:28:19.778Z,29.80
2018-07-13T18:30:48.090Z,29.70
2018-07-13T18:33:16.944Z,29.60
2018-07-13T18:35:45.297Z,29.50
2018-07-13T18:38:13.503Z,29.50
2018-07-13T18:40:41.820Z,29.40
2018-07-13T18:43:10.570Z,29.10
2018-07-13T18:45:38.997Z,28.90
2018-07-13T18:48:08.380Z,28.60
2018-07-13T18:50:36.584Z,28.50
2018-07-13T18:53:04.876Z,28.30
2018-07-13T18:55:33.190Z,28.10
2018-07-13T18:58:02.101Z,27.90
2018-07-13T19:00:32.511Z,27.50
2018-07-13T19:03:01.462Z,27.50
2018-07-13T19:05:29.678Z,27.40
2018-07-13T19:07:58.007Z,27.20
2018-07-13T19:10:26.330Z,27.10
2018-07-13T19:12:54.723Z,26.90
2018-07-13T19:15:23.925Z,26.50
2018-07-13T19:17:52.186Z,26.00
2018-07-13T19:20:20.595Z,25.60
2018-07-13T19:22:48.938Z,25.30
2018-07-13T19:25:18.102Z,25.10
2018-07-13T19:27:46.553Z,24.90
2018-07-13T19:30:14.945Z,24.80
2018-07-13T19:32:43.201Z,24.80
2018-07-13T19:35:11.470Z,24.60
2018-07-13T19:37:40.728Z,24.70
2018-07-13T19:40:09.142Z,24.50
2018-07-13T19:42:37.373Z,24.50
2018-07-13T19:45:05.686Z,24.30
2018-07-13T19:47:34.320Z,24.30
2018-07-13T19:50:02.732Z,24.20
2018-07-13T19:52:31.192Z,24.20
2018-07-13T19:54:59.507Z,24.00
2018-07-13T19:57:27.841Z,24.00
2018-07-13T19:59:56.309Z,23.70
2018-07-13T20:02:24.743Z,23.50
2018-07-13T20:04:52.980Z,23.40
2018-07-13T20:07:21.238Z,23.50
2018-07-13T20:09:49.452Z,23.20
2018-07-13T20:12:18.330Z,23.10
2018-07-13T20:14:47.106Z,23.00
2018-07-13T20:17:16.055Z,23.10
2018-07-13T20:19:44.259Z,22.90
2018-07-13T20:22:12.543Z,22.80
2018-07-13T20:24:40.753Z,22.90
2018-07-13T20:27:09.933Z,22.80
2018-07-13T20:29:38.553Z,22.90
2018-07-13T20:32:06.782Z,22.90
2018-07-13T20:34:35.050Z,22.80
2018-07-13T20:37:03.276Z,22.90
2018-07-13T20:39:32.229Z,22.80
2018-07-13T20:42:00.381Z,22.70
2018-07-13T20:44:28.633Z,22.70
2018-07-13T20:46:56.874Z,22.80
2018-07-13T20:49:25.241Z,22.70
2018-07-13T20:51:53.572Z,22.70
2018-07-13T20:54:21.793Z,22.70
2018-07-13T20:56:50.065Z,22.70
2018-07-13T20:59:18.279Z,22.80
2018-07-13T21:01:47.129Z,22.80
2018-07-13T21:04:16.129Z,22.70
2018-07-13T21:06:44.389Z,22.60
2018-07-13T21:09:12.653Z,22.50
2018-07-13T21:11:40.925Z,22.70
2018-07-13T21:14:09.866Z,22.70
2018-07-13T21:19:06.598Z,22.50
2018-07-13T21:21:34.862Z,22.50
2018-07-13T21:24:03.085Z,22.40
2018-07-13T21:26:31.981Z,22.40
2018-07-13T21:29:00.955Z,22.40
2018-07-13T21:31:29.210Z,22.70
2018-07-13T21:33:57.549Z,22.70
2018-07-13T21:36:25.802Z,22.60
2018-07-13T21:38:54.630Z,22.40
2018-07-13T21:41:22.979Z,22.30
2018-07-13T21:43:51.199Z,22.20
2018-07-13T21:46:19.572Z,22.20
2018-07-13T21:48:48.885Z,22.10
2018-07-13T21:51:17.290Z,22.00
2018-07-13T21:53:46.261Z,21.90
2018-07-13T21:56:14.510Z,22.20
2018-07-13T21:58:42.737Z,22.30
2018-07-13T22:01:10.970Z,22.20
2018-07-13T22:03:39.263Z,22.10
2018-07-13T22:06:07.826Z,22.30
2018-07-13T22:08:36.091Z,22.40
2018-07-13T22:11:04.315Z,22.40
2018-07-13T22:13:32.590Z,22.50
2018-07-13T22:16:01.348Z,22.30
2018-07-13T22:18:30.632Z,22.10
2018-07-13T22:20:59.037Z,22.50
2018-07-13T22:23:27.407Z,22.30
2018-07-13T22:25:55.894Z,22.50
2018-07-13T22:28:25.022Z,22.80
2018-07-13T22:30:53.451Z,22.70
2018-07-13T22:33:21.761Z,22.60
2018-07-13T22:35:50.054Z,22.50
2018-07-13T22:38:18.270Z,22.50
2018-07-13T22:40:47.034Z,22.70
2018-07-13T22:43:15.325Z,22.90
2018-07-13T22:45:43.631Z,22.90
2018-07-13T22:48:11.838Z,22.70
2018-07-13T22:50:40.799Z,22.40
2018-07-13T22:53:09.264Z,22.20
2018-07-13T22:55:37.614Z,21.70
2018-07-13T22:58:06.055Z,21.60
2018-07-13T23:00:34.269Z,21.50
2018-07-13T23:03:03.280Z,21.40
2018-07-13T23:05:31.690Z,21.40
2018-07-13T23:07:59.932Z,21.90
2018-07-13T23:10:28.298Z,21.70
2018-07-13T23:12:56.493Z,21.60
2018-07-13T23:15:24.881Z,21.60
2018-07-13T23:17:53.206Z,21.50
2018-07-13T23:20:21.565Z,21.50
2018-07-13T23:22:49.861Z,21.20
2018-07-13T23:25:18.083Z,21.50
2018-07-13T23:27:47.022Z,21.70
2018-07-13T23:30:15.350Z,21.90
2018-07-13T23:32:43.649Z,22.00
2018-07-13T23:35:11.899Z,21.70
2018-07-13T23:37:41.164Z,21.70
2018-07-13T23:40:09.614Z,21.30
2018-07-13T23:42:37.826Z,21.60
2018-07-13T23:45:06.143Z,21.50
2018-07-13T23:47:34.382Z,21.30
2018-07-13T23:50:02.749Z,20.90
2018-07-13T23:52:31.046Z,20.90
2018-07-13T23:54:59.270Z,20.90
2018-07-13T23:57:27.526Z,21.00
2018-07-13T23:59:55.901Z,20.70
